Time;durP1;ratioP1;P1;durP2;ratioP2;P2;SDS_P1;SDS_P2;PMS_P1;PMS_P2;Temp;Humidity;BMP_temperature;BMP_pressure;BME280_temperature;BME280_humidity;BME280_pressure;Samples;Min_cycle;Max_cycle;Signal;HPM_P1;HPM_P2
2023/02/05 00:02:08;;;;;;;15.40;10.80;;;;;;;1.10;79.67;101026.21;107275;1257;63847;-87
2023/02/05 00:04:35;;;;;;;14.80;11.90;;;;;;;1.09;79.68;101028.98;106780;1258;72530;-87
2023/02/05 00:07:03;;;;;;;14.10;11.20;;;;;;;1.09;79.71;101028.98;106226;1257;62126;-88
2023/02/05 00:09:30;;;;;;;14.50;11.10;;;;;;;1.08;79.68;101032.08;108869;1257;59240;-87
2023/02/05 00:11:58;;;;;;;12.60;10.50;;;;;;;1.07;79.65;101024.19;106940;1257;72822;-86
2023/02/05 00:14:25;;;;;;;14.60;11.30;;;;;;;1.06;79.68;101021.44;109045;1258;63794;-88
2023/02/05 00:16:52;;;;;;;14.20;11.50;;;;;;;1.06;79.64;101020.06;107882;1260;72350;-89
2023/02/05 00:19:20;;;;;;;15.10;11.20;;;;;;;1.05;79.84;101021.81;108137;1257;62448;-85
2023/02/05 00:21:46;;;;;;;14.50;11.60;;;;;;;1.07;79.72;101021.08;107814;1262;60697;-89
2023/02/05 00:24:17;;;;;;;15.60;11.30;;;;;;;1.05;79.49;101022.33;106555;1260;72792;-89
2023/02/05 00:26:44;;;;;;;16.10;12.10;;;;;;;1.02;79.70;101019.94;106521;1263;63693;-88
2023/02/05 00:29:11;;;;;;;16.60;12.70;;;;;;;1.04;79.95;101020.27;106753;1261;74540;-89
2023/02/05 00:31:39;;;;;;;15.90;12.10;;;;;;;1.06;79.87;101019.55;108674;1253;60106;-87
2023/02/05 00:34:07;;;;;;;15.10;12.40;;;;;;;1.08;79.79;101019.88;109636;1254;60146;-88
2023/02/05 00:36:34;;;;;;;20.60;12.60;;;;;;;1.08;79.66;101023.48;109649;1257;72935;-86
2023/02/05 00:39:03;;;;;;;16.50;13.20;;;;;;;1.07;79.75;101018.16;109564;1253;63759;-88
2023/02/05 00:41:30;;;;;;;14.90;12.40;;;;;;;1.11;79.94;101021.55;108194;1254;72536;-87
2023/02/05 00:43:59;;;;;;;17.00;12.50;;;;;;;1.11;79.71;101022.93;107240;1253;62146;-86
2023/02/05 00:46:26;;;;;;;14.50;12.40;;;;;;;1.10;79.87;101023.80;107003;1254;60046;-88
2023/02/05 00:48:54;;;;;;;17.10;12.50;;;;;;;1.12;80.07;101024.13;107683;1253;72899;-88
2023/02/05 00:51:21;;;;;;;14.40;11.60;;;;;;;1.13;79.95;101020.30;108562;1252;63854;-88
2023/02/05 00:53:48;;;;;;;15.40;12.20;;;;;;;1.15;80.09;101020.10;109448;1252;72630;-88
2023/02/05 00:56:15;;;;;;;14.00;11.90;;;;;;;1.19;80.17;101026.25;109385;1252;60909;-87
2023/02/05 00:58:47;;;;;;;14.10;11.40;;;;;;;1.25;80.21;101023.07;109020;1254;60204;-88
2023/02/05 01:01:15;;;;;;;19.70;13.10;;;;;;;1.27;79.78;101023.38;109287;1253;73078;-86
2023/02/05 01:03:42;;;;;;;14.80;12.50;;;;;;;1.22;79.55;101022.94;109320;1252;63789;-86
2023/02/05 01:06:09;;;;;;;17.00;12.40;;;;;;;1.17;79.44;101025.94;108621;1258;72344;-87
2023/02/05 01:08:37;;;;;;;15.80;11.50;;;;;;;1.11;79.65;101029.98;107653;1253;59685;-89
2023/02/05 01:11:09;;;;;;;17.70;12.80;;;;;;;1.07;79.73;101030.38;108027;1253;61261;-86
2023/02/05 01:13:38;;;;;;;15.80;11.80;;;;;;;1.07;80.20;101029.86;107790;1255;72041;-87
2023/02/05 01:16:09;;;;;;;16.10;13.20;;;;;;;1.11;80.18;101033.09;108462;1252;64201;-88
2023/02/05 01:18:36;;;;;;;17.90;13.40;;;;;;;1.11;80.10;101034.63;107805;1256;72700;-88
2023/02/05 01:21:04;;;;;;;16.20;12.20;;;;;;;1.14;80.11;101039.23;106944;1253;61015;-88
2023/02/05 01:23:32;;;;;;;16.50;12.30;;;;;;;1.11;79.99;101037.89;106841;1253;61564;-88
2023/02/05 01:26:00;;;;;;;20.60;14.70;;;;;;;1.09;80.09;101035.17;106951;1254;72995;-87
2023/02/05 01:28:29;;;;;;;17.30;13.10;;;;;;;1.07;80.32;101038.13;106992;1256;63690;-88
2023/02/05 01:30:56;;;;;;;16.20;12.10;;;;;;;1.06;80.52;101034.88;106886;1254;71416;-87
2023/02/05 01:33:25;;;;;;;18.40;13.80;;;;;;;1.05;80.72;101032.65;107496;1253;62302;-88
2023/02/05 01:35:53;;;;;;;18.50;13.60;;;;;;;1.08;81.03;101035.36;109573;1252;60057;-88
2023/02/05 01:38:20;;;;;;;18.90;14.40;;;;;;;1.12;80.91;101037.72;107192;1256;72942;-89
2023/02/05 01:40:48;;;;;;;18.90;13.10;;;;;;;1.16;81.01;101036.79;106753;1254;64434;-88
2023/02/05 01:43:17;;;;;;;19.20;13.30;;;;;;;1.19;80.75;101044.15;107922;1253;74092;-88
2023/02/05 01:45:56;;;;;;;19.00;13.90;;;;;;;1.23;80.71;101043.59;108792;1254;59612;-88
2023/02/05 01:48:27;;;;;;;19.80;14.10;;;;;;;1.28;80.78;101044.55;107581;1253;60033;-87
2023/02/05 01:50:56;;;;;;;19.20;14.10;;;;;;;1.30;80.56;101047.28;107311;1253;74233;-86
2023/02/05 01:53:26;;;;;;;21.40;13.90;;;;;;;1.29;80.30;101047.98;109245;1253;64053;-87
2023/02/05 01:55:58;;;;;;;20.50;14.40;;;;;;;1.27;80.32;101045.59;109002;1253;72948;-88
2023/02/05 01:58:32;;;;;;;19.70;14.90;;;;;;;1.24;80.47;101046.15;107671;1253;60774;-85
2023/02/05 02:00:59;;;;;;;19.80;14.00;;;;;;;1.24;80.60;101044.95;107626;1254;61030;-87
2023/02/05 02:03:29;;;;;;;18.90;13.20;;;;;;;1.26;80.67;101043.37;107229;1257;73425;-89
2023/02/05 02:05:57;;;;;;;20.50;13.50;;;;;;;1.25;80.59;101049.92;106686;1258;63819;-88
2023/02/05 02:08:36;;;;;;;18.30;13.20;;;;;;;1.25;80.74;101048.55;106819;1254;73879;-87
2023/02/05 02:11:04;;;;;;;18.70;13.80;;;;;;;1.26;80.74;101049.40;106882;1255;62238;-89
2023/02/05 02:13:33;;;;;;;19.90;13.40;;;;;;;1.22;80.66;101049.45;106442;1262;60171;-88
2023/02/05 02:16:04;;;;;;;19.50;14.30;;;;;;;1.19;80.37;101052.25;106494;1254;72851;-87
2023/02/05 02:18:35;;;;;;;18.00;13.10;;;;;;;1.16;80.68;101054.52;108992;1256;64996;-88
2023/02/05 02:21:13;;;;;;;19.30;13.40;;;;;;;1.17;80.70;101051.94;108093;1256;72637;-88
2023/02/05 02:24:12;;;;;;;21.60;14.80;;;;;;;1.18;80.66;101051.24;107111;1259;61143;-87
2023/02/05 02:26:45;;;;;;;18.00;13.50;;;;;;;1.16;80.32;101052.63;106999;1259;61114;-87
2023/02/05 02:29:41;;;;;;;26.40;15.30;;;;;;;1.15;80.49;101055.74;106885;1254;74162;-87
2023/02/05 02:32:35;;;;;;;21.20;14.50;;;;;;;1.13;80.52;101060.44;107447;1254;63861;-88
2023/02/05 02:35:09;;;;;;;21.60;13.80;;;;;;;1.11;80.77;101064.77;107638;1255;72422;-88
2023/02/05 02:38:03;;;;;;;24.30;15.40;;;;;;;1.15;81.33;101061.07;107766;1257;62040;-88
2023/02/05 02:40:37;;;;;;;23.10;13.70;;;;;;;1.24;81.58;101062.17;108080;1254;60464;-88
2023/02/05 02:43:20;;;;;;;22.90;15.10;;;;;;;1.31;81.55;101065.85;109372;1254;72822;-88
2023/02/05 02:46:00;;;;;;;22.30;15.60;;;;;;;1.38;81.28;101066.78;107793;1255;62694;-88
2023/02/05 02:48:28;;;;;;;26.50;17.50;;;;;;;1.42;81.18;101069.13;106996;1255;73706;-88
2023/02/05 02:50:55;;;;;;;23.40;14.90;;;;;;;1.44;80.83;101065.65;106987;1257;60570;-88
2023/02/05 02:53:32;;;;;;;22.60;14.80;;;;;;;1.40;80.34;101066.58;106390;1261;60051;-88
2023/02/05 02:56:04;;;;;;;26.00;17.20;;;;;;;1.29;80.07;101068.98;106215;1254;73051;-89
2023/02/05 02:58:44;;;;;;;24.60;16.30;;;;;;;1.17;80.33;101069.33;106044;1265;64926;-88
2023/02/05 03:01:11;;;;;;;23.40;16.30;;;;;;;1.12;80.84;101065.27;107779;1255;73027;-88
2023/02/05 03:03:41;;;;;;;27.70;16.60;;;;;;;1.08;80.83;101068.59;108307;1259;61319;-88
2023/02/05 03:06:09;;;;;;;25.30;17.00;;;;;;;1.01;81.28;101064.38;106787;1254;60520;-88
2023/02/05 03:08:50;;;;;;;21.20;15.30;;;;;;;1.03;81.57;101068.48;109075;1254;72970;-88
2023/02/05 03:11:18;;;;;;;24.70;14.90;;;;;;;1.05;81.36;101071.56;106683;1254;64375;-89
2023/02/05 03:13:46;;;;;;;23.20;15.50;;;;;;;1.01;81.30;101069.38;107531;1259;72984;-88
2023/02/05 03:16:18;;;;;;;23.70;14.90;;;;;;;1.00;81.44;101071.44;108334;1259;60539;-87
2023/02/05 03:18:46;;;;;;;30.70;16.60;;;;;;;1.02;81.56;101075.05;107657;1260;60329;-88
2023/02/05 03:21:22;;;;;;;24.20;14.70;;;;;;;1.00;81.37;101078.51;107203;1259;72795;-90
2023/02/05 03:23:50;;;;;;;29.00;16.50;;;;;;;0.94;81.44;101076.70;108296;1254;62505;-88
2023/02/05 03:26:25;;;;;;;23.50;14.40;;;;;;;0.89;81.46;101076.06;106885;1256;71399;-87
2023/02/05 03:28:56;;;;;;;22.30;13.00;;;;;;;0.82;81.39;101078.90;107006;1254;61100;-88
2023/02/05 03:31:32;;;;;;;25.70;13.50;;;;;;;0.76;81.44;101076.75;108485;1254;59545;-86
2023/02/05 03:34:27;;;;;;;21.90;12.80;;;;;;;0.70;81.54;101081.47;109480;1254;74434;-88
2023/02/05 03:37:14;;;;;;;21.40;12.30;;;;;;;0.61;81.78;101080.36;107427;1260;63675;-89
2023/02/05 03:40:00;;;;;;;23.30;13.30;;;;;;;0.55;82.16;101079.73;107322;1254;72686;-89
2023/02/05 03:43:02;;;;;;;18.70;11.70;;;;;;;0.54;82.28;101082.69;109513;1259;60845;-88
2023/02/05 03:45:45;;;;;;;17.60;12.10;;;;;;;0.52;82.60;101084.77;108907;1265;60217;-88
2023/02/05 03:48:15;;;;;;;21.10;12.70;;;;;;;0.54;82.66;101086.29;107848;1264;72985;-87
2023/02/05 03:50:53;;;;;;;21.40;12.80;;;;;;;0.57;82.92;101089.86;106373;1265;63864;-89
2023/02/05 03:53:43;;;;;;;17.50;11.00;;;;;;;0.60;82.73;101093.62;106525;1260;72676;-87
2023/02/05 03:56:15;;;;;;;20.80;12.00;;;;;;;0.61;82.78;101093.44;106529;1263;60832;-87
2023/02/05 03:58:48;;;;;;;18.30;11.70;;;;;;;0.60;82.72;101096.71;106582;1263;60799;-88
2023/02/05 04:01:16;;;;;;;21.70;11.90;;;;;;;0.57;82.47;101096.40;106489;1264;74267;-90
2023/02/05 04:03:44;;;;;;;17.10;12.20;;;;;;;0.49;82.29;101098.40;105721;1265;63816;-89
2023/02/05 04:06:14;;;;;;;18.40;11.80;;;;;;;0.40;82.43;101097.63;105628;1264;73602;-88
2023/02/05 04:08:42;;;;;;;16.20;10.70;;;;;;;0.32;82.58;101098.05;105763;1266;60904;-89
2023/02/05 04:11:12;;;;;;;14.80;9.80;;;;;;;0.29;82.85;101100.14;105877;1261;61384;-89
2023/02/05 04:13:42;;;;;;;15.50;10.20;;;;;;;0.26;82.87;101103.09;106169;1265;74984;-88
2023/02/05 04:16:10;;;;;;;17.90;10.70;;;;;;;0.25;82.96;101110.34;106076;1264;63958;-87
2023/02/05 04:18:38;;;;;;;17.10;10.90;;;;;;;0.25;83.20;101107.56;106817;1260;73669;-87
2023/02/05 04:21:08;;;;;;;17.60;10.70;;;;;;;0.31;83.45;101109.40;107783;1259;60855;-87
2023/02/05 04:23:37;;;;;;;16.40;10.50;;;;;;;0.39;83.57;101110.19;108210;1254;61075;-89
2023/02/05 04:26:06;;;;;;;16.30;10.60;;;;;;;0.45;83.34;101111.67;106734;1260;74274;-86
2023/02/05 04:28:41;;;;;;;17.00;10.10;;;;;;;0.49;83.27;101116.97;109041;1255;63798;-88
2023/02/05 04:31:11;;;;;;;16.00;11.60;;;;;;;0.54;83.21;101115.02;108011;1254;72838;-87
2023/02/05 04:33:39;;;;;;;19.10;11.70;;;;;;;0.59;82.94;101119.10;108500;1254;60431;-87
2023/02/05 04:36:08;;;;;;;16.00;9.90;;;;;;;0.61;82.49;101121.13;106676;1255;61740;-89
2023/02/05 04:38:36;;;;;;;17.80;11.10;;;;;;;0.60;82.13;101121.66;106435;1254;73879;-90
2023/02/05 04:41:03;;;;;;;15.70;9.80;;;;;;;0.58;81.78;101119.28;106447;1259;64522;-90
2023/02/05 04:43:31;;;;;;;18.50;11.00;;;;;;;0.52;81.70;101126.22;107288;1258;73675;-88
2023/02/05 04:46:12;;;;;;;16.30;10.10;;;;;;;0.50;81.87;101132.27;106913;1254;61055;-89
2023/02/05 04:48:39;;;;;;;15.40;10.70;;;;;;;0.47;81.71;101133.33;106599;1260;61336;-86
2023/02/05 04:51:08;;;;;;;19.10;12.10;;;;;;;0.43;81.70;101133.02;106845;1260;74521;-89
2023/02/05 04:53:36;;;;;;;16.70;11.50;;;;;;;0.41;81.54;101135.27;106994;1259;65572;-89
2023/02/05 04:56:08;;;;;;;17.00;11.90;;;;;;;0.38;81.56;101135.13;107211;1254;72607;-88
2023/02/05 04:58:38;;;;;;;24.10;15.50;;;;;;;0.36;81.72;101137.89;107439;1254;59461;-88
2023/02/05 05:01:16;;;;;;;26.10;16.10;;;;;;;0.35;81.72;101145.30;108510;1254;60432;-87
2023/02/05 05:03:46;;;;;;;22.00;14.40;;;;;;;0.34;81.61;101149.27;108094;1254;73921;-88
2023/02/05 05:06:16;;;;;;;22.40;14.00;;;;;;;0.34;81.45;101150.83;108174;1254;64733;-88
2023/02/05 05:08:43;;;;;;;18.60;13.10;;;;;;;0.27;81.15;101153.29;107750;1259;73598;-88
2023/02/05 05:11:17;;;;;;;22.20;14.10;;;;;;;0.20;81.17;101156.96;109128;1254;62350;-88
2023/02/05 05:13:45;;;;;;;23.30;14.70;;;;;;;0.13;81.27;101159.44;109169;1254;60565;-87
2023/02/05 05:16:12;;;;;;;21.30;15.00;;;;;;;0.07;81.29;101157.77;108153;1254;73545;-88
2023/02/05 05:18:41;;;;;;;18.70;13.10;;;;;;;0.07;81.75;101161.36;107602;1259;64027;-88
2023/02/05 05:21:10;;;;;;;22.50;13.40;;;;;;;0.11;81.75;101161.85;107234;1261;72469;-87
2023/02/05 05:23:38;;;;;;;21.00;13.50;;;;;;;0.14;81.65;101163.54;107108;1254;61781;-89
2023/02/05 05:26:07;;;;;;;24.20;15.50;;;;;;;0.19;81.93;101164.89;106580;1261;60412;-88
2023/02/05 05:28:35;;;;;;;22.50;15.80;;;;;;;0.28;81.80;101166.35;107227;1255;74612;-88
2023/02/05 05:31:12;;;;;;;22.30;15.80;;;;;;;0.29;81.44;101171.33;106709;1260;64101;-87
2023/02/05 05:33:39;;;;;;;24.50;16.00;;;;;;;0.30;81.34;101170.64;106737;1254;72657;-87
2023/02/05 05:36:07;;;;;;;23.50;16.10;;;;;;;0.29;81.27;101171.52;106931;1254;60424;-89
2023/02/05 05:38:35;;;;;;;26.90;16.50;;;;;;;0.29;81.27;101169.45;106865;1254;60197;-88
2023/02/05 05:43:49;;;;;;;33.50;19.20;;;;;;;0.33;81.16;101179.55;107473;1254;64047;-89
2023/02/05 05:46:22;;;;;;;34.00;19.20;;;;;;;0.34;81.09;101181.09;106756;1254;73747;-89
2023/02/05 05:48:52;;;;;;;31.90;19.40;;;;;;;0.34;81.05;101189.35;107026;1260;61143;-88
2023/02/05 05:51:20;;;;;;;26.60;17.20;;;;;;;0.35;81.07;101189.69;106575;1254;60488;-90
2023/02/05 05:53:47;;;;;;;27.20;18.00;;;;;;;0.36;80.98;101192.27;108461;1254;73729;-89
2023/02/05 05:56:15;;;;;;;27.60;17.70;;;;;;;0.35;80.88;101190.54;108422;1254;63915;-89
2023/02/05 05:58:42;;;;;;;30.20;18.20;;;;;;;0.37;80.95;101196.72;109257;1254;72622;-85
2023/02/05 06:01:11;;;;;;;40.50;22.40;;;;;;;0.41;81.00;101196.34;109050;1254;60289;-88
2023/02/05 06:03:38;;;;;;;30.80;19.60;;;;;;;0.48;81.26;101196.61;109365;1254;59340;-86
2023/02/05 06:06:07;;;;;;;35.70;19.50;;;;;;;0.59;81.25;101199.27;108558;1254;73499;-89
2023/02/05 06:08:34;;;;;;;37.70;21.50;;;;;;;0.64;80.79;101199.92;108284;1254;63600;-86
2023/02/05 06:11:01;;;;;;;28.20;17.40;;;;;;;0.63;80.64;101197.68;107513;1259;73908;-89
2023/02/05 06:13:33;;;;;;;29.20;17.30;;;;;;;0.67;80.71;101206.24;108123;1254;60473;-89
2023/02/05 06:16:02;;;;;;;28.60;18.30;;;;;;;0.74;80.63;101202.05;108428;1254;60484;-90
2023/02/05 06:18:31;;;;;;;27.70;18.40;;;;;;;0.79;80.08;101209.91;107237;1254;73753;-87
2023/02/05 06:20:58;;;;;;;26.80;18.30;;;;;;;0.79;79.93;101209.91;107294;1254;63610;-88
2023/02/05 06:23:25;;;;;;;24.90;15.90;;;;;;;0.79;79.69;101214.73;106974;1254;73439;-91
2023/02/05 06:25:53;;;;;;;23.90;16.50;;;;;;;0.78;79.44;101221.46;106960;1254;60961;-90
2023/02/05 06:28:20;;;;;;;27.90;16.20;;;;;;;0.79;79.69;101223.34;107435;1254;60442;-89
2023/02/05 06:30:48;;;;;;;21.00;14.10;;;;;;;0.86;79.98;101226.19;107087;1254;74803;-87
2023/02/05 06:33:17;;;;;;;25.20;14.90;;;;;;;0.94;79.60;101230.59;106598;1254;63392;-88
2023/02/05 06:35:45;;;;;;;26.40;14.30;;;;;;;0.93;79.42;101234.03;106747;1260;72388;-89
2023/02/05 06:38:12;;;;;;;24.50;14.50;;;;;;;0.91;79.08;101240.44;108612;1255;59663;-87
2023/02/05 06:40:39;;;;;;;22.40;14.40;;;;;;;0.87;79.04;101242.02;106968;1260;60370;-89
2023/02/05 06:43:07;;;;;;;19.80;12.30;;;;;;;0.85;79.12;101243.77;107252;1254;73639;-89
2023/02/05 06:45:34;;;;;;;20.60;13.60;;;;;;;0.84;79.09;101247.39;107672;1254;63723;-87
2023/02/05 06:48:02;;;;;;;24.40;12.90;;;;;;;0.80;78.75;101251.72;107308;1254;73016;-87
2023/02/05 06:50:29;;;;;;;21.60;12.50;;;;;;;0.76;78.86;101253.48;109412;1254;59874;-88
2023/02/05 06:52:57;;;;;;;22.30;13.00;;;;;;;0.74;78.85;101254.88;109360;1254;60375;-89
2023/02/05 06:55:24;;;;;;;26.80;13.50;;;;;;;0.71;78.82;101253.02;109168;1254;73641;-89
2023/02/05 06:57:51;;;;;;;17.70;11.30;;;;;;;0.69;78.91;101258.88;108380;1254;63519;-89
2023/02/05 07:00:18;;;;;;;20.20;12.10;;;;;;;0.67;78.67;101257.35;106774;1254;73200;-89
2023/02/05 07:02:45;;;;;;;18.80;11.80;;;;;;;0.69;78.59;101257.16;106974;1261;60914;-88
2023/02/05 07:05:14;;;;;;;20.50;11.90;;;;;;;0.71;78.72;101259.90;107293;1254;60306;-88
2023/02/05 07:07:42;;;;;;;19.60;11.70;;;;;;;0.75;78.65;101261.23;107199;1254;74455;-88
2023/02/05 07:10:14;;;;;;;20.40;11.80;;;;;;;0.77;78.59;101262.77;107648;1254;63656;-89
2023/02/05 07:12:44;;;;;;;21.90;13.00;;;;;;;0.75;78.33;101266.58;106809;1262;73724;-89
2023/02/05 07:15:16;;;;;;;21.60;11.90;;;;;;;0.71;78.33;101265.58;106808;1255;62406;-89
2023/02/05 07:18:04;;;;;;;19.40;11.80;;;;;;;0.67;78.46;101265.95;107460;1254;61525;-89
2023/02/05 07:20:34;;;;;;;16.80;10.80;;;;;;;0.61;78.49;101268.41;109146;1254;73822;-90
2023/02/05 07:23:01;;;;;;;16.90;11.20;;;;;;;0.57;78.29;101267.24;109331;1254;63583;-91
2023/02/05 07:25:36;;;;;;;17.40;11.30;;;;;;;0.54;78.20;101263.49;108060;1254;73319;-91
2023/02/05 07:28:05;;;;;;;21.60;12.30;;;;;;;0.52;78.51;101266.95;107228;1254;60448;-91
2023/02/05 07:30:34;;;;;;;21.70;10.90;;;;;;;0.56;78.70;101271.21;107662;1254;60540;-90
2023/02/05 07:33:20;;;;;;;20.40;12.10;;;;;;;0.58;78.60;101270.51;108014;1254;74875;-89
2023/02/05 07:35:49;;;;;;;19.70;12.00;;;;;;;0.62;78.85;101267.72;107314;1254;64865;-90
2023/02/05 07:38:19;;;;;;;15.70;10.30;;;;;;;0.69;78.91;101266.63;108438;1254;73687;-92
2023/02/05 07:40:46;;;;;;;20.10;11.60;;;;;;;0.75;78.77;101265.88;108981;1254;60747;-91
2023/02/05 07:43:20;;;;;;;19.70;13.50;;;;;;;0.81;78.69;101265.13;108956;1254;60309;-91
2023/02/05 07:49:41;;;;;;;;;;;;;;;;;;;;;
2023/02/05 07:53:06;;;;;;;18.80;12.60;;;;;;;0.84;78.33;101271.64;105411;1263;71273;-93
2023/02/05 07:55:49;;;;;;;20.90;11.70;;;;;;;0.89;78.25;101272.46;108297;1264;60538;-92
2023/02/05 07:58:29;;;;;;;18.80;12.10;;;;;;;0.94;78.46;101271.22;107325;1264;61280;-90
2023/02/05 08:06:29;;;;;;;18.80;11.40;;;;;;;1.09;77.92;101277.77;107850;1264;63136;-91
2023/02/05 08:09:36;;;;;;;18.50;11.00;;;;;;;1.11;77.82;101281.56;108379;1264;70459;-92
2023/02/05 08:12:48;;;;;;;16.80;10.60;;;;;;;1.19;77.85;101278.20;108113;1264;58617;-92
2023/02/05 08:15:21;;;;;;;20.40;11.70;;;;;;;1.24;77.11;101280.20;107625;1264;60405;-91
2023/02/05 08:23:13;;;;;;;16.70;10.90;;;;;;;1.18;76.10;101285.79;108347;1267;63800;-90
2023/02/05 08:27:27;;;;;;;17.40;11.90;;;;;;;1.10;76.00;101290.00;107488;1273;72684;-93
2023/02/05 08:30:28;;;;;;;22.60;13.80;;;;;;;1.05;76.29;101295.20;108014;1274;62207;-90
2023/02/05 08:32:57;;;;;;;19.50;11.30;;;;;;;1.05;76.32;101291.09;107113;1274;60520;-91
2023/02/05 08:35:28;;;;;;;18.30;11.40;;;;;;;1.05;76.34;101295.04;107427;1274;73317;-90
2023/02/05 08:38:06;;;;;;;17.70;11.90;;;;;;;1.12;76.27;101296.88;107752;1274;63870;-91
2023/02/05 08:40:36;;;;;;;16.40;10.90;;;;;;;1.16;76.03;101305.61;107057;1274;75059;-90
2023/02/05 08:43:07;;;;;;;19.50;12.20;;;;;;;1.18;75.92;101298.70;106283;1276;60431;-92
2023/02/05 08:45:39;;;;;;;15.90;10.80;;;;;;;1.23;75.79;101299.16;107485;1274;60259;-89
2023/02/05 08:48:16;;;;;;;19.40;12.00;;;;;;;1.24;75.20;101302.25;107607;1274;73656;-91
2023/02/05 08:50:45;;;;;;;18.90;12.90;;;;;;;1.21;74.96;101304.69;105613;1277;63752;-91
2023/02/05 08:53:12;;;;;;;16.90;11.50;;;;;;;1.17;74.54;101307.34;105731;1277;73459;-90
2023/02/05 08:55:45;;;;;;;19.70;13.10;;;;;;;1.15;74.57;101303.54;107126;1276;60789;-93
2023/02/05 08:58:59;;;;;;;15.90;11.50;;;;;;;1.16;74.04;101302.33;108085;1258;60696;-88
2023/02/05 09:02:59;;;;;;;14.40;10.00;;;;;;;1.14;73.45;101297.52;106752;1270;76279;-91
2023/02/05 09:05:31;;;;;;;;;;;;;;;1.12;73.30;101297.72;106260;1279;64878;-90
2023/02/05 09:08:04;;;;;;;16.70;10.50;;;;;;;1.12;73.08;101297.21;105649;1273;73609;-91
2023/02/05 09:10:44;;;;;;;16.40;11.50;;;;;;;1.08;72.94;101298.98;105778;1273;61120;-89
2023/02/05 09:13:16;;;;;;;17.50;11.40;;;;;;;1.06;72.84;101299.52;106002;1275;60919;-90
2023/02/05 09:15:47;;;;;;;15.70;10.90;;;;;;;1.02;72.95;101299.70;105491;1279;73950;-92
2023/02/05 09:18:17;;;;;;;15.50;12.60;;;;;;;1.00;72.86;101302.65;107000;1278;64082;-88
2023/02/05 09:20:47;;;;;;;17.80;12.60;;;;;;;0.99;72.54;101304.23;107115;1278;72864;-88
2023/02/05 09:23:18;;;;;;;16.10;11.30;;;;;;;0.98;72.74;101304.92;104590;1279;60481;-86
2023/02/05 09:25:45;;;;;;;77.20;46.80;;;;;;;1.05;72.57;101305.37;104327;1282;61321;-85
2023/02/05 09:28:13;;;;;;;15.80;11.30;;;;;;;1.06;71.85;101307.77;105573;1278;74825;-84
2023/02/05 09:30:42;;;;;;;15.80;10.50;;;;;;;1.08;71.37;101311.89;105337;1278;63817;-83
2023/02/05 09:33:10;;;;;;;17.40;11.90;;;;;;;1.09;70.48;101312.22;104379;1276;73569;-86
2023/02/05 09:35:37;;;;;;;17.10;12.50;;;;;;;1.05;69.64;101312.95;104375;1279;60652;-86
2023/02/05 09:38:04;;;;;;;14.80;10.80;;;;;;;1.01;69.35;101315.05;104441;1276;61204;-85
2023/02/05 09:41:09;;;;;;;13.90;11.10;;;;;;;1.00;69.35;101316.27;104474;1277;73911;-84
2023/02/05 09:43:46;;;;;;;14.70;9.40;;;;;;;1.05;69.58;101316.73;105750;1279;65000;-84
2023/02/05 09:46:24;;;;;;;16.30;10.50;;;;;;;1.16;69.50;101322.48;104343;1279;73773;-86
2023/02/05 09:49:16;;;;;;;14.90;10.00;;;;;;;1.23;68.96;101322.24;104429;1279;60613;-83
2023/02/05 09:51:49;;;;;;;12.40;9.30;;;;;;;1.22;68.20;101320.53;104272;1279;60715;-85
2023/02/05 09:54:21;;;;;;;14.70;10.50;;;;;;;1.19;68.11;101321.24;104729;1274;73949;-86
2023/02/05 09:56:50;;;;;;;17.90;11.80;;;;;;;1.15;68.40;101319.73;105448;1278;64769;-86
2023/02/05 09:59:20;;;;;;;15.10;11.40;;;;;;;1.08;68.59;101314.81;107881;1275;72823;-85
2023/02/05 10:01:47;;;;;;;13.90;10.30;;;;;;;1.04;68.91;101313.64;107878;1274;59401;-86
2023/02/05 10:04:15;;;;;;;14.20;10.90;;;;;;;1.07;69.04;101308.61;107192;1275;60052;-86
2023/02/05 10:07:04;;;;;;;13.80;10.10;;;;;;;1.11;69.07;101307.73;106867;1276;74063;-85
2023/02/05 10:10:10;;;;;;;16.70;11.20;;;;;;;1.15;69.20;101306.14;106725;1276;64824;-84
2023/02/05 10:13:02;;;;;;;18.20;13.10;;;;;;;1.17;69.38;101302.84;107488;1274;72672;-83
2023/02/05 10:15:54;;;;;;;15.90;11.20;;;;;;;1.19;69.68;101301.80;104881;1278;60675;-85
2023/02/05 10:18:22;;;;;;;14.50;11.10;;;;;;;1.33;69.60;101301.80;105561;1265;61303;-86
2023/02/05 10:21:17;;;;;;;18.20;13.40;;;;;;;1.46;69.35;101305.80;105693;1270;73896;-85
2023/02/05 10:24:15;;;;;;;27.70;19.40;;;;;;;1.49;68.42;101305.94;105674;1269;63103;-87
2023/02/05 10:26:51;;;;;;;25.00;18.20;;;;;;;1.37;67.90;101306.94;105705;1267;73700;-84
2023/02/05 10:29:32;;;;;;;20.20;15.10;;;;;;;1.27;67.90;101314.11;105260;1270;60727;-84
2023/02/05 10:32:08;;;;;;;16.10;11.10;;;;;;;1.23;68.11;101315.70;105423;1266;60488;-84
2023/02/05 10:34:42;;;;;;;19.50;12.60;;;;;;;1.19;68.21;101316.77;105232;1270;74957;-85
2023/02/05 10:37:13;;;;;;;14.20;10.40;;;;;;;1.13;68.40;101317.16;105264;1269;64564;-84
2023/02/05 10:39:40;;;;;;;16.10;9.30;;;;;;;1.05;69.03;101313.29;105407;1266;73467;-85
2023/02/05 10:42:32;;;;;;;12.20;9.30;;;;;;;1.01;69.10;101316.08;105147;1266;62331;-88
2023/02/05 10:45:05;;;;;;;12.00;8.30;;;;;;;0.94;68.94;101315.45;105076;1268;60508;-84
2023/02/05 10:48:02;;;;;;;11.80;8.80;;;;;;;0.91;69.21;101317.04;105298;1267;74678;-83
2023/02/05 10:50:47;;;;;;;14.70;10.20;;;;;;;0.94;68.90;101315.80;105335;1270;62433;-84
2023/02/05 10:53:20;;;;;;;12.70;9.50;;;;;;;0.97;69.38;101320.42;105413;1269;73836;-82
2023/02/05 10:55:48;;;;;;;15.40;10.20;;;;;;;1.00;69.47;101322.63;106862;1265;60469;-83
2023/02/05 10:58:27;;;;;;;13.90;9.50;;;;;;;1.01;69.66;101319.70;106810;1265;60672;-82
2023/02/05 11:00:55;;;;;;;14.90;10.80;;;;;;;0.94;69.33;101316.14;105302;1267;73647;-85
2023/02/05 11:03:22;;;;;;;11.80;8.50;;;;;;;0.87;69.05;101324.81;105204;1266;64850;-84
2023/02/05 11:05:49;;;;;;;11.10;8.20;;;;;;;0.78;68.89;101329.54;105071;1268;73738;-84
2023/02/05 11:08:29;;;;;;;11.90;8.80;;;;;;;0.63;68.86;101321.56;104996;1267;61916;-85
2023/02/05 11:10:56;;;;;;;11.60;8.40;;;;;;;0.54;69.51;101323.35;105161;1270;61348;-85
2023/02/05 11:13:24;;;;;;;11.40;8.80;;;;;;;0.54;70.30;101323.01;105096;1266;73864;-83
2023/02/05 11:16:11;;;;;;;13.10;9.50;;;;;;;0.54;70.96;101317.67;106863;1265;64832;-83
2023/02/05 11:19:22;;;;;;;16.00;10.80;;;;;;;0.59;72.05;101321.25;105690;1271;73704;-85
2023/02/05 11:21:58;;;;;;;12.30;8.40;;;;;;;0.64;72.60;101324.84;105274;1270;62388;-84
2023/02/05 11:24:30;;;;;;;10.40;7.70;;;;;;;0.72;72.26;101324.08;105743;1267;60422;-84
2023/02/05 11:27:18;;;;;;;14.70;9.40;;;;;;;0.76;72.23;101318.36;105487;1267;74515;-83
2023/02/05 11:29:46;;;;;;;13.70;10.00;;;;;;;0.81;72.34;101322.11;105294;1269;64616;-84
2023/02/05 11:32:37;;;;;;;12.90;9.60;;;;;;;0.85;72.43;101321.39;105023;1267;73663;-84
2023/02/05 11:35:28;;;;;;;13.50;10.50;;;;;;;0.86;72.40;101322.58;104963;1270;61167;-84
2023/02/05 11:38:07;;;;;;;18.20;11.50;;;;;;;0.89;72.42;101328.75;105461;1267;61311;-84
2023/02/05 11:40:34;;;;;;;15.70;11.20;;;;;;;0.91;72.48;101327.36;107465;1267;73875;-85
2023/02/05 11:43:16;;;;;;;12.40;10.30;;;;;;;0.93;72.61;101327.00;105189;1266;64913;-84
2023/02/05 11:45:47;;;;;;;13.70;9.60;;;;;;;0.96;72.25;101328.88;105217;1267;74182;-85
2023/02/05 11:48:38;;;;;;;24.70;17.30;;;;;;;0.93;72.19;101334.91;105604;1266;62418;-84
2023/02/05 11:51:07;;;;;;;19.30;11.80;;;;;;;0.89;72.55;101334.96;105741;1268;61353;-84
2023/02/05 11:56:31;;;;;;;34.60;22.90;;;;;;;0.88;73.37;101335.66;103140;1287;617199;-87
2023/02/05 11:59:02;;;;;;;19.30;13.90;;;;;;;0.90;73.29;101334.77;105405;1264;59727;-85
2023/02/05 12:01:32;;;;;;;16.10;11.20;;;;;;;0.96;73.69;101333.52;105350;1267;60105;-84
2023/02/05 12:04:12;;;;;;;18.10;12.90;;;;;;;1.04;73.65;101338.95;105264;1270;72774;-83